sensor_id;sensor_type;location;lat;lon;timestamp;pressure;altitude;pressure_sealevel;temperature;humidity
11036;BME280;5571;48.110;-1.706;2022-10-31T00:00:27;101437.63;;;14.17;100.00
11036;BME280;5571;48.110;-1.706;2022-10-31T00:02:53;101439.41;;;14.16;100.00
11036;BME280;5571;48.110;-1.706;2022-10-31T00:05:18;101435.91;;;14.16;100.00
11036;BME280;5571;48.110;-1.706;2022-10-31T00:07:44;101439.09;;;14.07;100.00
11036;BME280;5571;48.110;-1.706;2022-10-31T00:10:09;101437.47;;;14.04;100.00
11036;BME280;5571;48.110;-1.706;2022-10-31T00:12:34;101434.84;;;14.04;100.00
11036;BME280;5571;48.110;-1.706;2022-10-31T00:15:00;101438.59;;;14.00;100.00
11036;BME280;5571;48.110;-1.706;2022-10-31T00:17:25;101430.66;;;14.00;100.00
11036;BME280;5571;48.110;-1.706;2022-10-31T00:19:51;101436.13;;;13.97;100.00
11036;BME280;5571;48.110;-1.706;2022-10-31T00:22:16;101437.91;;;13.97;100.00
11036;BME280;5571;48.110;-1.706;2022-10-31T00:24:42;101434.25;;;13.99;100.00
11036;BME280;5571;48.110;-1.706;2022-10-31T00:27:07;101425.66;;;13.96;100.00
11036;BME280;5571;48.110;-1.706;2022-10-31T00:29:33;101432.91;;;13.92;100.00
11036;BME280;5571;48.110;-1.706;2022-10-31T00:31:58;101435.53;;;13.92;100.00
11036;BME280;5571;48.110;-1.706;2022-10-31T00:34:24;101424.13;;;13.92;100.00
11036;BME280;5571;48.110;-1.706;2022-10-31T00:36:49;101428.72;;;13.88;100.00
11036;BME280;5571;48.110;-1.706;2022-10-31T00:39:15;101420.94;;;13.85;100.00
11036;BME280;5571;48.110;-1.706;2022-10-31T00:41:40;101421.81;;;13.85;100.00
11036;BME280;5571;48.110;-1.706;2022-10-31T00:44:05;101419.44;;;13.81;100.00
11036;BME280;5571;48.110;-1.706;2022-10-31T00:46:31;101417.81;;;13.78;100.00
11036;BME280;5571;48.110;-1.706;2022-10-31T00:48:56;101418.22;;;13.71;100.00
11036;BME280;5571;48.110;-1.706;2022-10-31T00:51:22;101414.16;;;13.65;100.00
11036;BME280;5571;48.110;-1.706;2022-10-31T00:53:47;101415.09;;;13.64;100.00
11036;BME280;5571;48.110;-1.706;2022-10-31T00:56:13;101413.38;;;13.63;100.00
11036;BME280;5571;48.110;-1.706;2022-10-31T00:58:38;101407.25;;;13.63;100.00
11036;BME280;5571;48.110;-1.706;2022-10-31T01:01:04;101407.34;;;13.61;100.00
11036;BME280;5571;48.110;-1.706;2022-10-31T01:03:31;101403.06;;;13.59;100.00
11036;BME280;5571;48.110;-1.706;2022-10-31T01:06:01;101402.22;;;13.58;100.00
11036;BME280;5571;48.110;-1.706;2022-10-31T01:08:27;101397.03;;;13.57;100.00
11036;BME280;5571;48.110;-1.706;2022-10-31T01:11:13;101396.09;;;13.58;100.00
11036;BME280;5571;48.110;-1.706;2022-10-31T01:13:39;101397.88;;;13.57;100.00
11036;BME280;5571;48.110;-1.706;2022-10-31T01:16:07;101384.50;;;13.60;100.00
11036;BME280;5571;48.110;-1.706;2022-10-31T01:18:33;101383.66;;;13.60;100.00
11036;BME280;5571;48.110;-1.706;2022-10-31T01:23:29;101386.13;;;13.63;100.00
11036;BME280;5571;48.110;-1.706;2022-10-31T01:26:04;101388.69;;;13.64;100.00
11036;BME280;5571;48.110;-1.706;2022-10-31T01:28:30;101377.25;;;13.64;100.00
11036;BME280;5571;48.110;-1.706;2022-10-31T01:31:00;101370.13;;;13.66;100.00
11036;BME280;5571;48.110;-1.706;2022-10-31T01:33:25;101380.56;;;13.67;100.00
11036;BME280;5571;48.110;-1.706;2022-10-31T01:35:50;101373.25;;;13.72;100.00
11036;BME280;5571;48.110;-1.706;2022-10-31T01:38:16;101369.88;;;13.70;100.00
11036;BME280;5571;48.110;-1.706;2022-10-31T01:40:41;101367.97;;;13.72;100.00
11036;BME280;5571;48.110;-1.706;2022-10-31T01:43:12;101362.88;;;13.69;100.00
11036;BME280;5571;48.110;-1.706;2022-10-31T01:45:38;101361.94;;;13.70;100.00
11036;BME280;5571;48.110;-1.706;2022-10-31T01:48:03;101361.75;;;13.73;100.00
11036;BME280;5571;48.110;-1.706;2022-10-31T01:50:32;101362.50;;;13.75;100.00
11036;BME280;5571;48.110;-1.706;2022-10-31T01:52:59;101366.84;;;13.76;100.00
11036;BME280;5571;48.110;-1.706;2022-10-31T01:55:28;101357.34;;;13.74;100.00
11036;BME280;5571;48.110;-1.706;2022-10-31T01:57:57;101355.53;;;13.74;100.00
11036;BME280;5571;48.110;-1.706;2022-10-31T02:00:23;101353.72;;;13.75;100.00
11036;BME280;5571;48.110;-1.706;2022-10-31T02:02:49;101350.34;;;13.73;100.00
11036;BME280;5571;48.110;-1.706;2022-10-31T02:05:20;101356.66;;;13.70;100.00
11036;BME280;5571;48.110;-1.706;2022-10-31T02:08:11;101360.31;;;13.68;100.00
11036;BME280;5571;48.110;-1.706;2022-10-31T02:10:40;101369.59;;;13.59;100.00
11036;BME280;5571;48.110;-1.706;2022-10-31T02:13:07;101365.69;;;13.51;100.00
11036;BME280;5571;48.110;-1.706;2022-10-31T02:15:33;101363.75;;;13.38;100.00
11036;BME280;5571;48.110;-1.706;2022-10-31T02:18:00;101355.28;;;13.32;100.00
11036;BME280;5571;48.110;-1.706;2022-10-31T02:20:30;101356.56;;;13.25;100.00
11036;BME280;5571;48.110;-1.706;2022-10-31T02:31:48;101338.16;;;13.08;100.00
11036;BME280;5571;48.110;-1.706;2022-10-31T02:34:22;101338.28;;;13.05;100.00
11036;BME280;5571;48.110;-1.706;2022-10-31T02:40:14;101334.19;;;12.99;100.00
11036;BME280;5571;48.110;-1.706;2022-10-31T02:42:50;101334.19;;;12.99;100.00
11036;BME280;5571;48.110;-1.706;2022-10-31T02:45:31;101326.38;;;12.97;100.00
11036;BME280;5571;48.110;-1.706;2022-10-31T02:48:03;101336.16;;;12.95;100.00
11036;BME280;5571;48.110;-1.706;2022-10-31T02:50:34;101327.81;;;12.87;100.00
11036;BME280;5571;48.110;-1.706;2022-10-31T02:53:03;101326.69;;;12.76;100.00
11036;BME280;5571;48.110;-1.706;2022-10-31T02:58:08;101324.44;;;12.68;100.00
11036;BME280;5571;48.110;-1.706;2022-10-31T03:00:56;101319.34;;;12.65;100.00
11036;BME280;5571;48.110;-1.706;2022-10-31T03:06:06;101309.66;;;12.66;100.00
11036;BME280;5571;48.110;-1.706;2022-10-31T03:11:06;101302.22;;;12.56;100.00
11036;BME280;5571;48.110;-1.706;2022-10-31T03:14:20;101302.63;;;12.49;100.00
11036;BME280;5571;48.110;-1.706;2022-10-31T03:19:29;101283.97;;;12.36;100.00
11036;BME280;5571;48.110;-1.706;2022-10-31T03:22:08;101285.75;;;12.36;100.00
11036;BME280;5571;48.110;-1.706;2022-10-31T03:24:38;101300.84;;;12.32;100.00
11036;BME280;5571;48.110;-1.706;2022-10-31T03:27:06;101292.94;;;12.32;100.00
11036;BME280;5571;48.110;-1.706;2022-10-31T03:29:36;101285.81;;;12.34;100.00
11036;BME280;5571;48.110;-1.706;2022-10-31T03:32:09;101281.25;;;12.38;100.00
11036;BME280;5571;48.110;-1.706;2022-10-31T03:34:37;101274.19;;;12.38;100.00
11036;BME280;5571;48.110;-1.706;2022-10-31T03:37:06;101273.19;;;12.41;100.00
11036;BME280;5571;48.110;-1.706;2022-10-31T03:39:33;101263.41;;;12.43;100.00
11036;BME280;5571;48.110;-1.706;2022-10-31T03:42:06;101261.63;;;12.43;100.00
11036;BME280;5571;48.110;-1.706;2022-10-31T03:44:34;101263.47;;;12.41;100.00
11036;BME280;5571;48.110;-1.706;2022-10-31T03:47:02;101254.75;;;12.41;100.00
11036;BME280;5571;48.110;-1.706;2022-10-31T03:49:29;101252.19;;;12.39;100.00
11036;BME280;5571;48.110;-1.706;2022-10-31T03:52:00;101242.38;;;12.41;100.00
11036;BME280;5571;48.110;-1.706;2022-10-31T03:54:49;101247.75;;;12.40;100.00
11036;BME280;5571;48.110;-1.706;2022-10-31T03:57:40;101241.81;;;12.36;100.00
11036;BME280;5571;48.110;-1.706;2022-10-31T04:00:10;101238.16;;;12.39;100.00
11036;BME280;5571;48.110;-1.706;2022-10-31T04:02:40;101231.34;;;12.35;100.00
11036;BME280;5571;48.110;-1.706;2022-10-31T04:05:09;101227.16;;;12.31;100.00
11036;BME280;5571;48.110;-1.706;2022-10-31T04:07:39;101231.50;;;12.32;100.00
11036;BME280;5571;48.110;-1.706;2022-10-31T04:10:09;101226.81;;;12.37;100.00
11036;BME280;5571;48.110;-1.706;2022-10-31T04:12:35;101229.22;;;12.41;100.00
11036;BME280;5571;48.110;-1.706;2022-10-31T04:15:04;101222.16;;;12.42;100.00
11036;BME280;5571;48.110;-1.706;2022-10-31T04:17:33;101222.16;;;12.42;100.00
11036;BME280;5571;48.110;-1.706;2022-10-31T04:20:00;101220.13;;;12.47;100.00
11036;BME280;5571;48.110;-1.706;2022-10-31T04:22:25;101207.75;;;12.49;100.00
11036;BME280;5571;48.110;-1.706;2022-10-31T04:24:51;101208.41;;;12.52;100.00
11036;BME280;5571;48.110;-1.706;2022-10-31T04:27:16;101206.13;;;12.62;100.00
11036;BME280;5571;48.110;-1.706;2022-10-31T04:29:42;101213.13;;;12.63;100.00
11036;BME280;5571;48.110;-1.706;2022-10-31T04:32:07;101209.53;;;12.64;100.00
11036;BME280;5571;48.110;-1.706;2022-10-31T04:34:32;101203.31;;;12.65;100.00
11036;BME280;5571;48.110;-1.706;2022-10-31T04:36:57;101201.97;;;12.58;100.00
11036;BME280;5571;48.110;-1.706;2022-10-31T04:39:23;101212.75;;;12.53;100.00
11036;BME280;5571;48.110;-1.706;2022-10-31T04:41:48;101204.25;;;12.48;100.00
11036;BME280;5571;48.110;-1.706;2022-10-31T04:44:13;101193.09;;;12.43;100.00
11036;BME280;5571;48.110;-1.706;2022-10-31T04:46:39;101185.13;;;12.45;100.00
11036;BME280;5571;48.110;-1.706;2022-10-31T04:49:04;101186.47;;;12.52;100.00
11036;BME280;5571;48.110;-1.706;2022-10-31T04:51:29;101182.72;;;12.56;100.00
11036;BME280;5571;48.110;-1.706;2022-10-31T04:53:55;101174.56;;;12.61;100.00
11036;BME280;5571;48.110;-1.706;2022-10-31T04:56:20;101168.69;;;12.55;100.00
11036;BME280;5571;48.110;-1.706;2022-10-31T04:58:45;101166.25;;;12.52;100.00
11036;BME280;5571;48.110;-1.706;2022-10-31T05:01:11;101167.16;;;12.51;100.00
11036;BME280;5571;48.110;-1.706;2022-10-31T05:03:36;101174.75;;;12.57;100.00
11036;BME280;5571;48.110;-1.706;2022-10-31T05:06:04;101172.69;;;12.47;100.00
11036;BME280;5571;48.110;-1.706;2022-10-31T05:08:29;101168.34;;;12.46;100.00
11036;BME280;5571;48.110;-1.706;2022-10-31T05:10:55;101166.50;;;12.48;100.00
11036;BME280;5571;48.110;-1.706;2022-10-31T05:13:20;101161.97;;;12.50;100.00
11036;BME280;5571;48.110;-1.706;2022-10-31T05:15:45;101166.75;;;12.43;100.00
11036;BME280;5571;48.110;-1.706;2022-10-31T05:18:11;101162.56;;;12.39;100.00
11036;BME280;5571;48.110;-1.706;2022-10-31T05:20:36;101159.00;;;12.40;100.00
11036;BME280;5571;48.110;-1.706;2022-10-31T05:23:01;101153.56;;;12.43;100.00
11036;BME280;5571;48.110;-1.706;2022-10-31T05:25:28;101156.88;;;12.47;100.00
11036;BME280;5571;48.110;-1.706;2022-10-31T05:27:55;101160.91;;;12.54;100.00
11036;BME280;5571;48.110;-1.706;2022-10-31T05:30:31;101153.75;;;12.56;100.00
11036;BME280;5571;48.110;-1.706;2022-10-31T05:32:57;101146.94;;;12.52;100.00
11036;BME280;5571;48.110;-1.706;2022-10-31T05:35:25;101147.19;;;12.47;100.00
11036;BME280;5571;48.110;-1.706;2022-10-31T05:37:51;101140.81;;;12.51;100.00
11036;BME280;5571;48.110;-1.706;2022-10-31T05:40:17;101138.84;;;12.55;100.00
11036;BME280;5571;48.110;-1.706;2022-10-31T05:42:43;101132.47;;;12.59;100.00
11036;BME280;5571;48.110;-1.706;2022-10-31T05:45:10;101132.66;;;12.56;100.00
11036;BME280;5571;48.110;-1.706;2022-10-31T05:47:36;101131.91;;;12.54;100.00
11036;BME280;5571;48.110;-1.706;2022-10-31T05:50:01;101115.13;;;12.55;100.00
11036;BME280;5571;48.110;-1.706;2022-10-31T05:52:27;101116.84;;;12.56;100.00
11036;BME280;5571;48.110;-1.706;2022-10-31T05:54:52;101114.13;;;12.57;100.00
11036;BME280;5571;48.110;-1.706;2022-10-31T05:57:18;101108.75;;;12.59;100.00
11036;BME280;5571;48.110;-1.706;2022-10-31T05:59:43;101101.78;;;12.58;100.00
11036;BME280;5571;48.110;-1.706;2022-10-31T06:02:09;101106.09;;;12.59;100.00
11036;BME280;5571;48.110;-1.706;2022-10-31T06:04:34;101094.63;;;12.60;100.00
11036;BME280;5571;48.110;-1.706;2022-10-31T06:06:59;101083.16;;;12.61;100.00
11036;BME280;5571;48.110;-1.706;2022-10-31T06:09:25;101076.03;;;12.63;100.00
11036;BME280;5571;48.110;-1.706;2022-10-31T06:11:50;101068.94;;;12.64;100.00
11036;BME280;5571;48.110;-1.706;2022-10-31T06:14:15;101066.31;;;12.64;100.00
11036;BME280;5571;48.110;-1.706;2022-10-31T06:16:41;101067.94;;;12.66;100.00
11036;BME280;5571;48.110;-1.706;2022-10-31T06:19:06;101078.56;;;12.65;100.00
11036;BME280;5571;48.110;-1.706;2022-10-31T06:21:31;101062.84;;;12.63;100.00
11036;BME280;5571;48.110;-1.706;2022-10-31T06:23:57;101060.28;;;12.62;100.00
11036;BME280;5571;48.110;-1.706;2022-10-31T06:26:22;101057.66;;;12.62;100.00
11036;BME280;5571;48.110;-1.706;2022-10-31T06:28:47;101055.94;;;12.61;100.00
11036;BME280;5571;48.110;-1.706;2022-10-31T06:31:13;101055.00;;;12.62;100.00
11036;BME280;5571;48.110;-1.706;2022-10-31T06:33:41;101043.63;;;12.61;100.00
11036;BME280;5571;48.110;-1.706;2022-10-31T06:36:06;101038.41;;;12.60;100.00
11036;BME280;5571;48.110;-1.706;2022-10-31T06:38:32;101029.38;;;12.64;100.00
11036;BME280;5571;48.110;-1.706;2022-10-31T06:40:57;101025.75;;;12.66;100.00
11036;BME280;5571;48.110;-1.706;2022-10-31T06:43:22;101019.53;;;12.67;100.00
11036;BME280;5571;48.110;-1.706;2022-10-31T06:45:48;101021.41;;;12.65;100.00
11036;BME280;5571;48.110;-1.706;2022-10-31T06:48:13;101002.88;;;12.67;100.00
11036;BME280;5571;48.110;-1.706;2022-10-31T06:50:39;101006.63;;;12.63;100.00
11036;BME280;5571;48.110;-1.706;2022-10-31T06:53:05;101005.78;;;12.62;100.00
11036;BME280;5571;48.110;-1.706;2022-10-31T06:55:30;101005.66;;;12.64;100.00
11036;BME280;5571;48.110;-1.706;2022-10-31T06:57:59;100994.03;;;12.68;100.00
11036;BME280;5571;48.110;-1.706;2022-10-31T07:00:28;101000.91;;;12.70;100.00
11036;BME280;5571;48.110;-1.706;2022-10-31T07:05:27;101001.75;;;12.71;100.00
11036;BME280;5571;48.110;-1.706;2022-10-31T07:07:58;100996.28;;;12.74;100.00
11036;BME280;5571;48.110;-1.706;2022-10-31T07:10:25;100979.53;;;12.75;100.00
11036;BME280;5571;48.110;-1.706;2022-10-31T07:12:59;100971.34;;;12.79;100.00
11036;BME280;5571;48.110;-1.706;2022-10-31T07:15:26;100968.53;;;12.82;100.00
11036;BME280;5571;48.110;-1.706;2022-10-31T07:17:52;100960.47;;;12.85;100.00
11036;BME280;5571;48.110;-1.706;2022-10-31T07:20:18;100956.69;;;12.89;100.00
11036;BME280;5571;48.110;-1.706;2022-10-31T07:22:43;100950.38;;;12.92;100.00
11036;BME280;5571;48.110;-1.706;2022-10-31T07:25:09;100954.63;;;12.94;100.00
11036;BME280;5571;48.110;-1.706;2022-10-31T07:27:39;100951.03;;;12.95;100.00
11036;BME280;5571;48.110;-1.706;2022-10-31T07:30:09;100953.66;;;12.95;100.00
11036;BME280;5571;48.110;-1.706;2022-10-31T07:32:43;100954.44;;;12.97;100.00
11036;BME280;5571;48.110;-1.706;2022-10-31T07:35:11;100955.28;;;12.98;100.00
11036;BME280;5571;48.110;-1.706;2022-10-31T07:37:37;100957.81;;;12.99;100.00
11036;BME280;5571;48.110;-1.706;2022-10-31T07:40:03;100970.94;;;13.01;100.00
11036;BME280;5571;48.110;-1.706;2022-10-31T07:42:34;100972.72;;;13.00;100.00
11036;BME280;5571;48.110;-1.706;2022-10-31T07:45:00;100972.50;;;13.03;100.00
11036;BME280;5571;48.110;-1.706;2022-10-31T07:47:25;100966.41;;;13.03;100.00
11036;BME280;5571;48.110;-1.706;2022-10-31T07:49:51;100973.22;;;13.07;100.00
11036;BME280;5571;48.110;-1.706;2022-10-31T07:52:17;100966.03;;;13.09;100.00
11036;BME280;5571;48.110;-1.706;2022-10-31T07:54:43;100960.63;;;13.12;100.00
11036;BME280;5571;48.110;-1.706;2022-10-31T07:57:09;100951.66;;;13.15;100.00
11036;BME280;5571;48.110;-1.706;2022-10-31T07:59:35;100947.03;;;13.18;100.00
11036;BME280;5571;48.110;-1.706;2022-10-31T08:02:00;100945.06;;;13.22;100.00
11036;BME280;5571;48.110;-1.706;2022-10-31T08:04:26;100942.97;;;13.27;100.00
11036;BME280;5571;48.110;-1.706;2022-10-31T08:06:51;100940.06;;;13.31;100.00
11036;BME280;5571;48.110;-1.706;2022-10-31T08:09:17;100934.41;;;13.37;100.00
11036;BME280;5571;48.110;-1.706;2022-10-31T08:11:42;100925.34;;;13.41;100.00
11036;BME280;5571;48.110;-1.706;2022-10-31T08:14:08;100922.63;;;13.43;100.00
11036;BME280;5571;48.110;-1.706;2022-10-31T08:16:33;100919.72;;;13.48;100.00
11036;BME280;5571;48.110;-1.706;2022-10-31T08:18:59;100915.06;;;13.51;100.00
11036;BME280;5571;48.110;-1.706;2022-10-31T08:21:26;100913.38;;;13.50;100.00
11036;BME280;5571;48.110;-1.706;2022-10-31T08:23:52;100904.41;;;13.53;100.00
11036;BME280;5571;48.110;-1.706;2022-10-31T08:26:17;100899.03;;;13.54;100.00
11036;BME280;5571;48.110;-1.706;2022-10-31T08:28:42;100896.00;;;13.60;100.00
11036;BME280;5571;48.110;-1.706;2022-10-31T08:31:08;100879.41;;;13.58;100.00
11036;BME280;5571;48.110;-1.706;2022-10-31T08:33:35;100879.41;;;13.58;100.00
11036;BME280;5571;48.110;-1.706;2022-10-31T08:36:01;100882.91;;;13.59;100.00
11036;BME280;5571;48.110;-1.706;2022-10-31T08:38:26;100870.47;;;13.61;100.00
11036;BME280;5571;48.110;-1.706;2022-10-31T08:40:52;100866.75;;;13.63;100.00
11036;BME280;5571;48.110;-1.706;2022-10-31T08:43:18;100858.75;;;13.65;100.00
11036;BME280;5571;48.110;-1.706;2022-10-31T08:45:46;100868.25;;;13.67;100.00
11036;BME280;5571;48.110;-1.706;2022-10-31T08:48:13;100864.59;;;13.70;100.00
11036;BME280;5571;48.110;-1.706;2022-10-31T08:50:40;100860.97;;;13.71;100.00
11036;BME280;5571;48.110;-1.706;2022-10-31T08:53:07;100850.31;;;13.72;100.00
11036;BME280;5571;48.110;-1.706;2022-10-31T08:55:34;100843.34;;;13.71;100.00
11036;BME280;5571;48.110;-1.706;2022-10-31T08:58:01;100834.41;;;13.74;100.00
11036;BME280;5571;48.110;-1.706;2022-10-31T09:00:26;100838.63;;;13.76;100.00
11036;BME280;5571;48.110;-1.706;2022-10-31T09:02:59;100828.91;;;13.77;100.00
11036;BME280;5571;48.110;-1.706;2022-10-31T09:05:25;100822.69;;;13.78;100.00
11036;BME280;5571;48.110;-1.706;2022-10-31T09:07:55;100808.53;;;13.79;100.00
11036;BME280;5571;48.110;-1.706;2022-10-31T09:10:21;100807.69;;;13.78;100.00
11036;BME280;5571;48.110;-1.706;2022-10-31T09:12:46;100795.22;;;13.80;100.00
11036;BME280;5571;48.110;-1.706;2022-10-31T09:15:11;100798.69;;;13.81;100.00
11036;BME280;5571;48.110;-1.706;2022-10-31T09:17:37;100792.38;;;13.83;100.00
11036;BME280;5571;48.110;-1.706;2022-10-31T09:20:02;100786.25;;;13.83;100.00
11036;BME280;5571;48.110;-1.706;2022-10-31T09:22:28;100783.50;;;13.84;100.00
11036;BME280;5571;48.110;-1.706;2022-10-31T09:24:53;100769.34;;;13.85;100.00
11036;BME280;5571;48.110;-1.706;2022-10-31T09:27:18;100772.75;;;13.87;100.00
11036;BME280;5571;48.110;-1.706;2022-10-31T09:29:43;100772.44;;;13.92;100.00
11036;BME280;5571;48.110;-1.706;2022-10-31T09:32:09;100772.00;;;13.98;100.00
11036;BME280;5571;48.110;-1.706;2022-10-31T09:34:34;100776.13;;;14.02;100.00
11036;BME280;5571;48.110;-1.706;2022-10-31T09:36:59;100770.75;;;14.04;100.00
11036;BME280;5571;48.110;-1.706;2022-10-31T09:39:25;100776.56;;;14.09;100.00
11036;BME280;5571;48.110;-1.706;2022-10-31T09:42:05;100762.50;;;14.08;100.00
11036;BME280;5571;48.110;-1.706;2022-10-31T09:45:00;100741.38;;;14.08;100.00
11036;BME280;5571;48.110;-1.706;2022-10-31T09:50:21;100743.47;;;14.16;100.00
11036;BME280;5571;48.110;-1.706;2022-10-31T09:53:10;100751.53;;;14.14;100.00
11036;BME280;5571;48.110;-1.706;2022-10-31T09:55:43;100740.22;;;14.12;100.00
11036;BME280;5571;48.110;-1.706;2022-10-31T09:58:23;100742.75;;;14.14;100.00
11036;BME280;5571;48.110;-1.706;2022-10-31T10:00:49;100733.75;;;14.16;100.00
11036;BME280;5571;48.110;-1.706;2022-10-31T10:03:30;100740.53;;;14.20;100.00
11036;BME280;5571;48.110;-1.706;2022-10-31T10:06:18;100733.34;;;14.22;100.00
11036;BME280;5571;48.110;-1.706;2022-10-31T10:08:45;100729.44;;;14.28;100.00
11036;BME280;5571;48.110;-1.706;2022-10-31T10:13:57;100714.84;;;14.48;100.00
11036;BME280;5571;48.110;-1.706;2022-10-31T10:19:33;100702.88;;;14.67;100.00
11036;BME280;5571;48.110;-1.706;2022-10-31T10:22:12;100696.75;;;14.67;100.00
11036;BME280;5571;48.110;-1.706;2022-10-31T10:25:20;100694.50;;;14.73;100.00
11036;BME280;5571;48.110;-1.706;2022-10-31T10:30:20;100675.28;;;14.95;100.00
11036;BME280;5571;48.110;-1.706;2022-10-31T10:32:52;100672.03;;;15.15;100.00
11036;BME280;5571;48.110;-1.706;2022-10-31T10:35:23;100668.47;;;15.28;100.00
11036;BME280;5571;48.110;-1.706;2022-10-31T10:38:37;100669.91;;;15.32;100.00
11036;BME280;5571;48.110;-1.706;2022-10-31T10:40:37;100668.47;;;15.28;100.00
11036;BME280;5571;48.110;-1.706;2022-10-31T10:43:33;100664.84;;;15.29;100.00
11036;BME280;5571;48.110;-1.706;2022-10-31T10:51:51;100653.78;;;15.58;100.00
11036;BME280;5571;48.110;-1.706;2022-10-31T10:59:30;100616.56;;;16.06;100.00
11036;BME280;5571;48.110;-1.706;2022-10-31T11:01:57;100632.69;;;16.14;100.00
11036;BME280;5571;48.110;-1.706;2022-10-31T11:07:11;100610.13;;;15.86;100.00
11036;BME280;5571;48.110;-1.706;2022-10-31T11:09:37;100608.44;;;15.85;100.00
11036;BME280;5571;48.110;-1.706;2022-10-31T11:12:15;100605.09;;;15.94;100.00
11036;BME280;5571;48.110;-1.706;2022-10-31T11:14:47;100595.44;;;16.27;100.00
11036;BME280;5571;48.110;-1.706;2022-10-31T11:17:33;100588.31;;;16.38;100.00
11036;BME280;5571;48.110;-1.706;2022-10-31T11:20:30;100584.84;;;16.38;100.00
11036;BME280;5571;48.110;-1.706;2022-10-31T11:23:16;100587.88;;;16.11;100.00
11036;BME280;5571;48.110;-1.706;2022-10-31T11:25:59;100569.78;;;15.94;100.00
11036;BME280;5571;48.110;-1.706;2022-10-31T11:28:27;100558.47;;;15.92;100.00
11036;BME280;5571;48.110;-1.706;2022-10-31T11:30:57;100567.84;;;15.85;100.00
11036;BME280;5571;48.110;-1.706;2022-10-31T11:36:01;100548.72;;;15.70;100.00
11036;BME280;5571;48.110;-1.706;2022-10-31T11:38:40;100545.22;;;15.70;100.00
11036;BME280;5571;48.110;-1.706;2022-10-31T11:41:24;100550.88;;;15.65;100.00
11036;BME280;5571;48.110;-1.706;2022-10-31T11:43:54;100548.22;;;15.65;100.00
11036;BME280;5571;48.110;-1.706;2022-10-31T11:46:30;100525.81;;;15.58;100.00
11036;BME280;5571;48.110;-1.706;2022-10-31T11:48:57;100531.13;;;15.58;100.00
11036;BME280;5571;48.110;-1.706;2022-10-31T11:51:26;100524.38;;;15.54;100.00
11036;BME280;5571;48.110;-1.706;2022-10-31T11:53:55;100516.44;;;15.54;100.00
11036;BME280;5571;48.110;-1.706;2022-10-31T11:56:22;100508.72;;;15.51;100.00
11036;BME280;5571;48.110;-1.706;2022-10-31T11:59:02;100508.94;;;15.48;100.00
11036;BME280;5571;48.110;-1.706;2022-10-31T12:01:29;100489.34;;;15.50;100.00
11036;BME280;5571;48.110;-1.706;2022-10-31T12:04:09;100486.81;;;15.49;100.00
11036;BME280;5571;48.110;-1.706;2022-10-31T12:06:39;100483.84;;;15.53;100.00
11036;BME280;5571;48.110;-1.706;2022-10-31T12:09:27;100478.66;;;15.52;100.00
11036;BME280;5571;48.110;-1.706;2022-10-31T12:17:15;100458.78;;;15.68;100.00
11036;BME280;5571;48.110;-1.706;2022-10-31T12:22:16;100443.84;;;15.67;100.00
11036;BME280;5571;48.110;-1.706;2022-10-31T12:30:18;100433.72;;;15.73;100.00
11036;BME280;5571;48.110;-1.706;2022-10-31T12:35:39;100420.09;;;15.88;100.00
11036;BME280;5571;48.110;-1.706;2022-10-31T12:58:21;100368.88;;;16.51;100.00
11036;BME280;5571;48.110;-1.706;2022-10-31T13:00:52;100360.19;;;16.49;100.00
11036;BME280;5571;48.110;-1.706;2022-10-31T13:03:24;100354.63;;;16.52;100.00
11036;BME280;5571;48.110;-1.706;2022-10-31T13:05:58;100359.69;;;16.55;100.00
11036;BME280;5571;48.110;-1.706;2022-10-31T13:08:37;100354.72;;;16.62;100.00
11036;BME280;5571;48.110;-1.706;2022-10-31T13:11:08;100348.06;;;16.68;100.00
11036;BME280;5571;48.110;-1.706;2022-10-31T13:13:47;100346.81;;;16.72;100.00
11036;BME280;5571;48.110;-1.706;2022-10-31T13:16:21;100347.84;;;16.80;100.00
11036;BME280;5571;48.110;-1.706;2022-10-31T13:18:53;100340.72;;;16.81;100.00
11036;BME280;5571;48.110;-1.706;2022-10-31T13:21:23;100334.47;;;16.82;100.00
11036;BME280;5571;48.110;-1.706;2022-10-31T13:23:50;100334.31;;;16.83;100.00
11036;BME280;5571;48.110;-1.706;2022-10-31T13:29:05;100326.63;;;16.80;100.00
11036;BME280;5571;48.110;-1.706;2022-10-31T13:31:34;100318.16;;;16.86;100.00
11036;BME280;5571;48.110;-1.706;2022-10-31T13:34:19;100309.34;;;16.86;100.00
11036;BME280;5571;48.110;-1.706;2022-10-31T13:45:20;100283.75;;;16.85;100.00
11036;BME280;5571;48.110;-1.706;2022-10-31T13:47:59;100274.56;;;16.89;100.00
11036;BME280;5571;48.110;-1.706;2022-10-31T13:50:31;100272.47;;;16.92;100.00
11036;BME280;5571;48.110;-1.706;2022-10-31T13:56:13;100275.88;;;17.04;100.00
11036;BME280;5571;48.110;-1.706;2022-10-31T13:58:32;100270.00;;;17.10;100.00
11036;BME280;5571;48.110;-1.706;2022-10-31T14:03:30;100271.28;;;17.16;100.00
11036;BME280;5571;48.110;-1.706;2022-10-31T14:05:56;100269.78;;;17.23;100.00
11036;BME280;5571;48.110;-1.706;2022-10-31T14:08:23;100261.13;;;17.30;100.00
11036;BME280;5571;48.110;-1.706;2022-10-31T14:10:51;100232.78;;;17.40;100.00
11036;BME280;5571;48.110;-1.706;2022-10-31T14:13:22;100244.53;;;17.48;100.00
11036;BME280;5571;48.110;-1.706;2022-10-31T14:15:54;100249.97;;;17.46;100.00
11036;BME280;5571;48.110;-1.706;2022-10-31T14:18:28;100234.75;;;17.48;100.00
11036;BME280;5571;48.110;-1.706;2022-10-31T14:20:55;100241.59;;;17.51;100.00
11036;BME280;5571;48.110;-1.706;2022-10-31T14:28:50;100220.91;;;17.54;100.00
11036;BME280;5571;48.110;-1.706;2022-10-31T14:31:38;100209.19;;;17.66;100.00
11036;BME280;5571;48.110;-1.706;2022-10-31T14:50:57;100182.44;;;17.77;100.00
11036;BME280;5571;48.110;-1.706;2022-10-31T14:53:35;100204.72;;;17.76;100.00
11036;BME280;5571;48.110;-1.706;2022-10-31T14:56:02;100189.03;;;17.73;100.00
11036;BME280;5571;48.110;-1.706;2022-10-31T14:58:36;100238.97;;;17.79;100.00
11036;BME280;5571;48.110;-1.706;2022-10-31T15:01:03;100192.41;;;17.75;100.00